This is the latest recevied weather packets stored in our database for station/object KD0SBN-3. If no packets are shown the sender has not sent any weather packets the latest 10 day(s).
| Time | Temp. | Humidity | Pressure | Rain* | Wind** | Luminosity | Snow |
|---|---|---|---|---|---|---|---|
| 1777478811 | 5.56° C | 63% | 1026.7 hPa | 0 mm | - | 475 W/m² | - |
| 1777478507 | 5° C | 65% | 1026.8 hPa | 0 mm | - | 477 W/m² | - |
| 1777478204 | 5° C | 66% | 1026.8 hPa | 0 mm | - | 397 W/m² | - |
| 1777477901 | 4.44° C | 67% | 1026.8 hPa | 0 mm | - | 355 W/m² | - |
| 1777477596 | 5° C | 65% | 1026.8 hPa | 0 mm | - | 383 W/m² | - |
| 1777477292 | 5° C | 64% | 1027 hPa | 0 mm | - | 421 W/m² | - |
| 1777476989 | 5.56° C | 64% | 1027 hPa | 0 mm | - | 458 W/m² | - |
| 1777476688 | 5° C | 66% | 1026.7 hPa | 0 mm | - | 357 W/m² | - |
| 1777476383 | 4.44° C | 67% | 1026.8 hPa | 0 mm | - | 272 W/m² | - |
| 1777476081 | 3.33° C | 71% | 1026.8 hPa | 0 mm | - | 413 W/m² | - |
| 1777475781 | 2.78° C | 73% | 1026.7 hPa | 0 mm | - | 246 W/m² | - |
| 1777475478 | 2.78° C | 74% | 1026.8 hPa | 0 mm | - | 184 W/m² | - |
| 1777475174 | 2.22° C | 75% | 1027 hPa | 0 mm | - | 166 W/m² | - |
| 1777474870 | 2.78° C | 74% | 1027 hPa | 0 mm | - | 155 W/m² | - |
| 1777474565 | 2.78° C | 73% | 1027.1 hPa | 0 mm | - | 144 W/m² | - |
| 1777474262 | 2.22° C | 75% | 1027.2 hPa | 0 mm | - | 165 W/m² | - |
| 1777473959 | 2.22° C | 75% | 1027 hPa | 0 mm | - | 171 W/m² | - |
| 1777473657 | 2.22° C | 76% | 1027 hPa | 0 mm | - | 159 W/m² | - |
| 1777473353 | 1.67° C | 76% | 1027 hPa | 0 mm | - | 148 W/m² | - |
| 1777473049 | 1.67° C | 77% | 1027.1 hPa | 0 mm | - | 135 W/m² | - |
| 1777472745 | 1.67° C | 77% | 1027 hPa | 0 mm | - | 138 W/m² | - |
| 1777472442 | 1.67° C | 78% | 1027 hPa | 0 mm | - | 146 W/m² | - |
| 1777472140 | 1.67° C | 77% | 1026.8 hPa | 0 mm | - | 143 W/m² | - |
| 1777471839 | 1.67° C | 77% | 1026.8 hPa | 0 mm | - | 134 W/m² | - |
| 1777471536 | 1.11° C | 78% | 1026.8 hPa | 0 mm | - | 103 W/m² | - |
* Rain latest hour (hover to see other rain measurements)
** Current wind speed in m/s (hover to see current wind gust speed)